Terminal Aerodrome Forecast
Issued by NWS Twin Cities, MN

Home | Current Version | Previous Version | Graphics & Text | Print | Product List | Glossary On
Versions: 1 2 3 4 5 6 7 8 9 10 11 12 13 14 15 16
000
FTUS43 KMPX 241000 AAB
TAFSTC
TAF AMD
KSTC 241020Z 2410/2506 14012KT P6SM VCTS BKN015 BKN060CB
     FM241300 14011KT P6SM SCT015 BKN070
     FM241800 17014G21KT P6SM SCT100
     FM242300 19010KT P6SM VCTS SCT035CB
     FM250200 22007KT P6SM FEW150=

USA.gov is the U.S. government's official web portal to all federal, state and local government web resources and services.